createdAt,value
2018-08-13T00:00:49.919Z,978.945
2018-08-13T00:02:49.976Z,978.917
2018-08-13T00:04:50.326Z,978.863
2018-08-13T00:06:49.610Z,978.828
2018-08-13T00:08:49.649Z,978.811
2018-08-13T00:10:49.794Z,978.794
2018-08-13T00:12:49.767Z,978.797
2018-08-13T00:14:49.959Z,978.784
2018-08-13T00:16:50.291Z,978.759
2018-08-13T00:18:50.488Z,978.753
2018-08-13T00:20:50.421Z,978.733
2018-08-13T00:22:50.463Z,978.724
2018-08-13T00:24:50.593Z,978.714
2018-08-13T00:26:49.897Z,978.686
2018-08-13T00:28:49.886Z,978.686
2018-08-13T00:30:49.911Z,978.656
2018-08-13T00:32:49.959Z,978.656
2018-08-13T00:34:50.330Z,978.617
2018-08-13T00:36:49.675Z,978.626
2018-08-13T00:38:49.720Z,978.584
2018-08-13T00:40:49.977Z,978.577
2018-08-13T00:42:50.033Z,978.564
2018-08-13T00:44:50.127Z,978.545
2018-08-13T00:46:50.341Z,978.544
2018-08-13T00:48:50.381Z,978.547
2018-08-13T00:50:50.503Z,978.544
2018-08-13T00:52:49.610Z,978.549
2018-08-13T00:54:49.627Z,978.546
2018-08-13T00:56:50.122Z,978.538
2018-08-13T00:58:50.164Z,978.509
2018-08-13T01:00:50.128Z,978.493
2018-08-13T01:02:50.232Z,978.457
2018-08-13T01:04:49.709Z,978.450
2018-08-13T01:06:50.041Z,978.445
2018-08-13T01:08:50.079Z,978.439
2018-08-13T01:10:50.067Z,978.430
2018-08-13T01:12:50.210Z,978.417
2018-08-13T01:14:50.240Z,978.394
2018-08-13T01:16:50.444Z,978.368
2018-08-13T01:18:50.518Z,978.359
2018-08-13T01:20:50.572Z,978.333
2018-08-13T01:22:49.718Z,978.321
2018-08-13T01:24:49.698Z,978.301
2018-08-13T01:26:49.952Z,978.310
2018-08-13T01:28:50.023Z,978.313
2018-08-13T01:30:50.040Z,978.315
2018-08-13T01:32:50.143Z,978.317
2018-08-13T01:34:49.687Z,978.314
2018-08-13T01:36:50.029Z,978.301
2018-08-13T01:38:50.132Z,978.289
2018-08-13T01:40:50.394Z,978.281
2018-08-13T01:42:50.467Z,978.283
2018-08-13T01:44:49.616Z,978.275
2018-08-13T01:46:49.878Z,978.249
2018-08-13T01:48:49.868Z,978.226
2018-08-13T01:50:50.169Z,978.238
2018-08-13T01:52:50.278Z,978.209
2018-08-13T01:54:50.279Z,978.193
2018-08-13T01:56:50.552Z,978.160
2018-08-13T01:58:49.679Z,978.140
2018-08-13T02:00:49.944Z,978.124
2018-08-13T02:02:50.010Z,978.090
2018-08-13T02:04:50.351Z,978.066
2018-08-13T02:06:49.676Z,978.019
2018-08-13T02:08:50.570Z,977.997
2018-08-13T02:10:49.627Z,977.956
2018-08-13T02:12:49.763Z,977.927
2018-08-13T02:14:49.752Z,977.887
2018-08-13T02:16:50.258Z,977.949
2018-08-13T02:18:50.357Z,977.986
2018-08-13T02:20:50.389Z,977.982
2018-08-13T02:22:50.385Z,977.951
2018-08-13T02:24:50.486Z,977.932
2018-08-13T02:26:49.896Z,977.909
2018-08-13T02:28:49.909Z,977.876
2018-08-13T02:30:49.935Z,977.826
2018-08-13T02:32:49.929Z,977.809
2018-08-13T02:34:50.323Z,977.762
2018-08-13T02:36:49.864Z,977.743
2018-08-13T02:38:49.857Z,977.714
2018-08-13T02:40:49.891Z,977.710
2018-08-13T02:42:49.943Z,977.716
2018-08-13T02:44:50.101Z,977.736
2018-08-13T02:46:50.409Z,977.752
2018-08-13T02:48:50.471Z,977.816
2018-08-13T02:50:49.621Z,977.822
2018-08-13T02:52:49.873Z,977.822
2018-08-13T02:54:49.898Z,977.817
2018-08-13T02:56:50.142Z,977.808
2018-08-13T02:58:50.228Z,977.834
2018-08-13T03:00:50.306Z,977.843
2018-08-13T03:02:50.441Z,977.883
2018-08-13T03:04:50.401Z,977.900
2018-08-13T03:06:49.905Z,977.898
2018-08-13T03:08:50.136Z,977.885
2018-08-13T03:10:50.168Z,977.891
2018-08-13T03:12:50.153Z,977.889
2018-08-13T03:14:50.228Z,977.871
2018-08-13T03:16:50.515Z,977.820
2018-08-13T03:18:50.552Z,977.820
2018-08-13T03:20:49.639Z,977.807
2018-08-13T03:22:49.650Z,977.849
2018-08-13T03:24:49.918Z,977.883
2018-08-13T03:26:50.175Z,977.898
2018-08-13T03:28:50.141Z,977.912
2018-08-13T03:30:50.212Z,977.901
2018-08-13T03:32:50.288Z,977.871
2018-08-13T03:34:49.758Z,977.862
2018-08-13T03:36:49.846Z,977.824
2018-08-13T03:38:49.867Z,977.818
2018-08-13T03:40:50.009Z,977.839
2018-08-13T03:42:50.017Z,977.892
2018-08-13T03:44:50.004Z,977.931
2018-08-13T03:46:50.304Z,977.970
2018-08-13T03:48:50.377Z,977.988
2018-08-13T03:50:50.443Z,977.979
2018-08-13T03:52:50.405Z,977.990
2018-08-13T03:54:50.431Z,978.000
2018-08-13T03:56:49.745Z,978.038
2018-08-13T03:58:49.753Z,978.036
2018-08-13T04:00:49.711Z,978.052
2018-08-13T04:02:49.744Z,978.019
2018-08-13T04:04:50.202Z,978.007
2018-08-13T04:06:50.512Z,977.991
2018-08-13T04:08:50.433Z,977.996
2018-08-13T04:10:50.500Z,978.002
2018-08-13T04:12:49.756Z,978.003
2018-08-13T04:14:49.874Z,977.994
2018-08-13T04:16:50.159Z,978.021
2018-08-13T04:18:50.342Z,978.020
2018-08-13T04:20:50.587Z,977.981
2018-08-13T04:22:50.561Z,977.939
2018-08-13T04:24:50.619Z,977.935
2018-08-13T04:26:49.687Z,977.943
2018-08-13T04:28:49.830Z,977.943
2018-08-13T04:30:49.972Z,977.962
2018-08-13T04:32:50.360Z,977.976
2018-08-13T04:34:50.204Z,977.978
2018-08-13T04:36:50.519Z,977.977
2018-08-13T04:38:49.649Z,977.992
2018-08-13T04:40:50.608Z,977.979
2018-08-13T04:42:49.693Z,977.949
2018-08-13T04:44:49.856Z,977.905
2018-08-13T04:46:50.274Z,977.827
2018-08-13T04:48:50.244Z,977.818
2018-08-13T04:50:50.303Z,977.801
2018-08-13T04:52:50.434Z,977.783
2018-08-13T04:54:50.516Z,977.796
2018-08-13T04:56:49.698Z,977.793
2018-08-13T04:58:49.835Z,977.802
2018-08-13T05:00:50.199Z,977.794
2018-08-13T05:02:50.265Z,977.794
2018-08-13T05:04:50.592Z,977.727
2018-08-13T05:06:49.784Z,977.705
2018-08-13T05:08:50.107Z,977.690
2018-08-13T05:10:50.200Z,977.666
2018-08-13T05:12:50.202Z,977.635
2018-08-13T05:14:50.268Z,977.600
2018-08-13T05:16:50.497Z,977.576
2018-08-13T05:18:50.479Z,977.559
2018-08-13T05:20:50.533Z,977.519
2018-08-13T05:22:49.677Z,977.466
2018-08-13T05:24:49.960Z,977.415
2018-08-13T05:26:50.125Z,977.406
2018-08-13T05:28:50.123Z,977.362
2018-08-13T05:30:50.300Z,977.362
2018-08-13T05:32:50.359Z,977.369
2018-08-13T05:34:49.718Z,977.379
2018-08-13T05:36:50.495Z,977.354
2018-08-13T05:38:50.579Z,977.347
2018-08-13T05:40:49.693Z,977.377
2018-08-13T05:42:49.694Z,977.418
2018-08-13T05:44:49.707Z,977.430
2018-08-13T05:46:50.139Z,977.454
2018-08-13T05:48:50.348Z,977.453
2018-08-13T05:50:50.314Z,977.449
2018-08-13T05:52:50.485Z,977.421
2018-08-13T05:54:49.795Z,977.403
2018-08-13T05:56:50.135Z,977.380
2018-08-13T05:58:50.067Z,977.365
2018-08-13T06:00:50.169Z,977.349
2018-08-13T06:02:50.269Z,977.344
2018-08-13T06:04:49.792Z,977.348
2018-08-13T06:06:50.074Z,977.349
2018-08-13T06:08:49.981Z,977.348
2018-08-13T06:10:50.117Z,977.337
2018-08-13T06:12:50.287Z,977.337
2018-08-13T06:14:50.306Z,977.321
2018-08-13T06:16:50.603Z,977.292
2018-08-13T06:18:49.665Z,977.288
2018-08-13T06:20:49.979Z,977.265
2018-08-13T06:22:50.038Z,977.269
2018-08-13T06:24:50.095Z,977.269
2018-08-13T06:26:49.612Z,977.236
2018-08-13T06:28:49.810Z,977.191
2018-08-13T06:30:49.911Z,977.176
2018-08-13T06:32:49.919Z,977.153
2018-08-13T06:34:50.238Z,977.147
2018-08-13T06:36:50.563Z,977.129
2018-08-13T06:38:49.750Z,977.124
2018-08-13T06:40:49.785Z,977.114
2018-08-13T06:42:49.809Z,977.060
2018-08-13T06:44:49.987Z,977.014
2018-08-13T06:46:50.132Z,977.003
2018-08-13T06:48:50.149Z,976.965
2018-08-13T06:50:50.342Z,976.955
2018-08-13T06:52:50.526Z,976.959
2018-08-13T06:54:50.506Z,976.925
2018-08-13T06:56:49.788Z,976.923
2018-08-13T06:58:50.040Z,976.942
2018-08-13T07:00:50.321Z,976.942
2018-08-13T07:02:50.559Z,976.929
2018-08-13T07:04:50.042Z,976.902
2018-08-13T07:06:50.322Z,976.902
2018-08-13T07:08:50.416Z,976.897
2018-08-13T07:10:50.493Z,976.896
2018-08-13T07:12:50.518Z,976.885
2018-08-13T07:14:49.615Z,976.925
2018-08-13T07:16:49.869Z,976.945
2018-08-13T07:18:49.916Z,976.981
2018-08-13T07:20:49.963Z,976.971
2018-08-13T07:22:50.101Z,976.981
2018-08-13T07:24:50.206Z,977.003
2018-08-13T07:26:50.523Z,977.007
2018-08-13T07:28:50.455Z,976.989
2018-08-13T07:30:50.606Z,976.989
2018-08-13T07:32:49.753Z,976.967
2018-08-13T07:34:50.231Z,976.967
2018-08-13T07:36:50.510Z,976.965
2018-08-13T07:38:50.658Z,976.973
2018-08-13T07:40:49.960Z,976.965
2018-08-13T07:42:50.061Z,976.945
2018-08-13T07:44:50.115Z,976.948
2018-08-13T07:46:50.217Z,976.948
2018-08-13T07:48:50.396Z,976.914
2018-08-13T07:50:50.477Z,976.899
2018-08-13T07:52:50.606Z,976.855
2018-08-13T07:54:49.717Z,976.844
2018-08-13T07:56:49.867Z,976.836
2018-08-13T07:58:49.942Z,976.827
2018-08-13T08:00:50.154Z,976.812
2018-08-13T08:02:50.171Z,976.801
2018-08-13T08:04:50.552Z,976.810
2018-08-13T08:06:50.014Z,976.814
2018-08-13T08:08:50.130Z,976.829
2018-08-13T08:10:50.271Z,976.829
2018-08-13T08:12:50.256Z,976.800
2018-08-13T08:14:50.866Z,976.799
2018-08-13T08:16:50.373Z,976.816
2018-08-13T08:18:50.433Z,976.820
2018-08-13T08:20:50.419Z,976.820
2018-08-13T08:22:50.496Z,976.881
2018-08-13T08:24:50.529Z,976.919
2018-08-13T08:26:49.792Z,976.950
2018-08-13T08:28:49.826Z,976.975
2018-08-13T08:30:49.961Z,976.970
2018-08-13T08:32:50.021Z,976.986
2018-08-13T08:34:50.700Z,977.057
2018-08-13T08:36:50.202Z,977.159
2018-08-13T08:38:50.302Z,977.275
2018-08-13T08:40:50.572Z,977.376
2018-08-13T08:42:50.111Z,977.402
2018-08-13T08:44:50.205Z,977.401
2018-08-13T08:46:50.491Z,977.405
2018-08-13T08:48:50.609Z,977.403
2018-08-13T08:50:49.728Z,977.424
2018-08-13T08:52:49.885Z,977.457
2018-08-13T08:54:49.850Z,977.479
2018-08-13T08:56:50.224Z,977.466
2018-08-13T08:58:50.387Z,977.466
2018-08-13T09:00:50.675Z,977.404
2018-08-13T09:02:49.785Z,977.404
2018-08-13T09:04:50.292Z,977.369
2018-08-13T09:06:50.438Z,977.369
2018-08-13T09:08:50.477Z,977.424
2018-08-13T09:10:49.657Z,977.424
2018-08-13T09:12:49.805Z,977.531
2018-08-13T09:14:49.887Z,977.510
2018-08-13T09:16:50.066Z,977.529
2018-08-13T09:18:50.463Z,977.538
2018-08-13T09:20:49.788Z,977.576
2018-08-13T09:22:50.312Z,977.570
2018-08-13T09:24:49.903Z,977.609
2018-08-13T09:26:49.939Z,977.609
2018-08-13T09:28:50.006Z,977.618
2018-08-13T09:30:50.222Z,977.711
2018-08-13T09:32:50.055Z,977.723
2018-08-13T09:34:50.455Z,977.761
2018-08-13T09:36:50.335Z,977.777
2018-08-13T09:38:50.351Z,977.869
2018-08-13T09:40:50.538Z,977.817
2018-08-13T09:42:49.686Z,977.822
2018-08-13T09:44:49.764Z,977.822
2018-08-13T09:46:49.987Z,977.822
2018-08-13T09:48:50.089Z,977.812
2018-08-13T09:50:50.248Z,977.791
2018-08-13T09:52:50.328Z,977.807
2018-08-13T09:54:50.341Z,977.834
2018-08-13T09:56:50.567Z,977.812
2018-08-13T09:58:49.921Z,977.811
2018-08-13T10:00:50.021Z,977.845
2018-08-13T10:02:49.990Z,977.854
2018-08-13T10:04:50.477Z,977.855
2018-08-13T10:06:49.763Z,977.808
2018-08-13T10:08:50.037Z,977.785
2018-08-13T10:10:50.387Z,977.752
2018-08-13T10:12:49.706Z,977.789
2018-08-13T10:14:49.715Z,977.817
2018-08-13T10:16:50.344Z,977.808
2018-08-13T10:18:50.527Z,977.815
2018-08-13T10:20:49.840Z,977.822
2018-08-13T10:22:49.821Z,977.836
2018-08-13T10:24:49.803Z,977.844
2018-08-13T10:26:50.191Z,977.892
2018-08-13T10:28:50.261Z,977.925
2018-08-13T10:30:50.308Z,977.943
2018-08-13T10:32:50.309Z,977.923
2018-08-13T10:34:49.739Z,977.925
2018-08-13T10:36:50.144Z,977.944
2018-08-13T10:38:50.155Z,977.949
2018-08-13T10:40:50.094Z,977.923
2018-08-13T10:42:50.121Z,977.934
2018-08-13T10:44:50.407Z,977.967
2018-08-13T10:46:49.933Z,977.992
2018-08-13T10:48:49.964Z,978.057
2018-08-13T10:50:50.073Z,978.057
2018-08-13T10:52:50.183Z,978.105
2018-08-13T10:54:50.112Z,978.115
2018-08-13T10:56:50.466Z,978.149
2018-08-13T10:58:50.572Z,978.149
2018-08-13T11:00:49.754Z,978.194
2018-08-13T11:02:49.932Z,978.191
2018-08-13T11:04:49.651Z,978.249
2018-08-13T11:06:49.963Z,978.288
2018-08-13T11:08:50.022Z,978.336
2018-08-13T11:10:49.991Z,978.359
2018-08-13T11:12:49.964Z,978.384
2018-08-13T11:14:50.070Z,978.403
2018-08-13T11:16:50.377Z,978.458
2018-08-13T11:18:50.421Z,978.462
2018-08-13T11:20:50.457Z,978.470
2018-08-13T11:22:50.542Z,978.511
2018-08-13T11:24:49.757Z,978.517
2018-08-13T11:26:50.100Z,978.583
2018-08-13T11:28:50.063Z,978.618
2018-08-13T11:30:50.101Z,978.705
2018-08-13T11:32:50.254Z,978.744
2018-08-13T11:34:50.128Z,978.775
2018-08-13T11:36:49.632Z,978.815
2018-08-13T11:38:50.569Z,978.834
2018-08-13T11:40:49.723Z,978.840
2018-08-13T11:42:49.791Z,978.841
2018-08-13T11:44:49.861Z,978.866
2018-08-13T11:46:50.061Z,978.871
2018-08-13T11:48:50.101Z,978.872
2018-08-13T11:50:50.290Z,978.843
2018-08-13T11:52:50.366Z,978.861
2018-08-13T11:54:50.353Z,978.850
2018-08-13T11:56:49.637Z,978.850
2018-08-13T11:58:49.753Z,978.852
2018-08-13T12:00:49.728Z,978.903
2018-08-13T12:02:49.659Z,978.953
2018-08-13T12:04:50.179Z,978.925
2018-08-13T12:06:50.541Z,978.867
2018-08-13T12:08:49.865Z,978.879
2018-08-13T12:10:49.916Z,978.944
2018-08-13T12:12:49.977Z,978.979
2018-08-13T12:14:50.034Z,978.968
2018-08-13T12:16:50.353Z,978.975
2018-08-13T12:18:50.403Z,978.986
2018-08-13T12:20:50.396Z,979.023
2018-08-13T12:22:50.387Z,979.072
2018-08-13T12:24:50.570Z,979.085
2018-08-13T12:26:49.879Z,979.068
2018-08-13T12:28:49.885Z,979.049
2018-08-13T12:30:50.068Z,979.029
2018-08-13T12:32:50.227Z,978.986
2018-08-13T12:34:49.804Z,978.956
2018-08-13T12:36:50.135Z,978.943
2018-08-13T12:38:50.213Z,978.946
2018-08-13T12:40:50.255Z,978.916
2018-08-13T12:42:50.271Z,978.897
2018-08-13T12:44:50.359Z,978.935
2018-08-13T12:46:49.609Z,978.950
2018-08-13T12:48:50.601Z,978.992
2018-08-13T12:50:49.632Z,978.976
2018-08-13T12:52:49.833Z,978.933
2018-08-13T12:54:49.936Z,978.913
2018-08-13T12:56:50.055Z,978.919
2018-08-13T12:58:50.138Z,978.894
2018-08-13T13:00:50.264Z,978.810
2018-08-13T13:02:50.504Z,978.768
2018-08-13T13:04:49.883Z,978.744
2018-08-13T13:06:50.198Z,978.725
2018-08-13T13:08:50.455Z,978.725
2018-08-13T13:10:49.740Z,978.694
2018-08-13T13:12:49.905Z,978.676
2018-08-13T13:14:50.234Z,978.650
2018-08-13T13:16:49.783Z,978.612
2018-08-13T13:18:50.061Z,978.524
2018-08-13T13:20:50.246Z,978.523
2018-08-13T13:22:50.558Z,978.549
2018-08-13T13:24:49.786Z,978.549
2018-08-13T13:26:50.185Z,978.539
2018-08-13T13:28:50.312Z,978.522
2018-08-13T13:30:50.383Z,978.483
2018-08-13T13:32:50.435Z,978.440
2018-08-13T13:34:49.924Z,978.419
2018-08-13T13:36:50.388Z,978.364
2018-08-13T13:38:50.554Z,978.300
2018-08-13T13:40:49.713Z,978.253
2018-08-13T13:42:49.823Z,978.208
2018-08-13T13:44:49.827Z,978.115
2018-08-13T13:46:50.245Z,978.110
2018-08-13T13:48:50.379Z,978.110
2018-08-13T13:50:49.730Z,978.117
2018-08-13T13:52:49.848Z,978.149
2018-08-13T13:54:49.925Z,978.182
2018-08-13T13:56:50.241Z,978.145
2018-08-13T13:58:50.327Z,978.124
2018-08-13T14:00:50.312Z,978.137
2018-08-13T14:02:50.384Z,978.134
2018-08-13T14:04:49.967Z,978.111
2018-08-13T14:06:50.301Z,978.020
2018-08-13T14:08:50.370Z,977.963
2018-08-13T14:10:50.360Z,977.937
2018-08-13T14:12:50.366Z,977.937
2018-08-13T14:14:50.448Z,977.899
2018-08-13T14:16:49.938Z,977.895
2018-08-13T14:18:49.992Z,977.894
2018-08-13T14:20:50.090Z,977.902
2018-08-13T14:22:50.142Z,977.877
2018-08-13T14:24:50.378Z,977.873
2018-08-13T14:26:49.641Z,977.867
2018-08-13T14:28:49.735Z,977.843
2018-08-13T14:30:49.745Z,977.808
2018-08-13T14:32:49.767Z,977.803
2018-08-13T14:34:50.645Z,977.804
2018-08-13T14:36:50.355Z,977.811
2018-08-13T14:38:50.363Z,977.796
2018-08-13T14:40:50.370Z,977.792
2018-08-13T14:42:50.462Z,977.807
2018-08-13T14:44:49.652Z,977.809
2018-08-13T14:46:49.993Z,977.797
2018-08-13T14:48:50.038Z,977.766
2018-08-13T14:50:50.168Z,977.753
2018-08-13T14:52:50.450Z,977.755
2018-08-13T14:54:50.608Z,977.741
2018-08-13T14:56:49.802Z,977.723
2018-08-13T14:58:49.858Z,977.721
2018-08-13T15:00:49.910Z,977.715
2018-08-13T15:02:50.052Z,977.702
2018-08-13T15:04:50.577Z,977.698
2018-08-13T15:06:50.024Z,977.696
2018-08-13T15:08:50.035Z,977.697
2018-08-13T15:10:50.099Z,977.687
2018-08-13T15:12:50.361Z,977.689
2018-08-13T15:14:50.526Z,977.679
2018-08-13T15:16:49.783Z,977.693
2018-08-13T15:18:49.777Z,977.702
2018-08-13T15:20:49.926Z,977.690
2018-08-13T15:22:50.088Z,977.652
2018-08-13T15:24:50.212Z,977.584
2018-08-13T15:26:50.609Z,977.575
2018-08-13T15:28:49.693Z,977.618
2018-08-13T15:30:49.921Z,977.653
2018-08-13T15:32:50.119Z,977.666
2018-08-13T15:34:49.747Z,977.722
2018-08-13T15:36:50.008Z,977.730
2018-08-13T15:38:50.135Z,977.713
2018-08-13T15:40:50.292Z,977.713
2018-08-13T15:42:50.399Z,977.627
2018-08-13T15:44:50.440Z,977.604
2018-08-13T15:46:49.693Z,977.594
2018-08-13T15:48:49.810Z,977.578
2018-08-13T15:50:50.091Z,977.542
2018-08-13T15:52:50.199Z,977.500
2018-08-13T15:54:50.278Z,977.507
2018-08-13T15:56:50.503Z,977.544
2018-08-13T15:58:50.577Z,977.569
2018-08-13T16:00:49.710Z,977.545
2018-08-13T16:02:49.763Z,977.526
2018-08-13T16:04:50.370Z,977.517
2018-08-13T16:06:49.667Z,977.488
2018-08-13T16:08:49.900Z,977.417
2018-08-13T16:10:49.961Z,977.382
2018-08-13T16:12:50.017Z,977.369
2018-08-13T16:14:50.051Z,977.375
2018-08-13T16:16:50.438Z,977.329
2018-08-13T16:18:50.507Z,977.308
2018-08-13T16:20:50.555Z,977.286
2018-08-13T16:22:49.606Z,977.272
2018-08-13T16:24:49.778Z,977.266
2018-08-13T16:26:50.030Z,977.276
2018-08-13T16:28:50.059Z,977.270
2018-08-13T16:30:50.121Z,977.270
2018-08-13T16:32:50.274Z,977.252
2018-08-13T16:34:49.837Z,977.247
2018-08-13T16:36:50.202Z,977.245
2018-08-13T16:38:50.272Z,977.216
2018-08-13T16:40:50.342Z,977.215
2018-08-13T16:42:49.752Z,977.211
2018-08-13T16:44:49.920Z,977.212
2018-08-13T16:46:50.047Z,977.186
2018-08-13T16:48:50.053Z,977.174
2018-08-13T16:50:50.098Z,977.172
2018-08-13T16:52:50.252Z,977.169
2018-08-13T16:54:50.357Z,977.169
2018-08-13T16:56:50.578Z,977.167
2018-08-13T16:58:49.657Z,977.160
2018-08-13T17:00:49.836Z,977.121
2018-08-13T17:02:50.003Z,977.085
2018-08-13T17:04:50.444Z,977.049
2018-08-13T17:06:49.680Z,977.032
2018-08-13T17:08:49.766Z,976.998
2018-08-13T17:10:49.983Z,976.977
2018-08-13T17:12:50.193Z,976.988
2018-08-13T17:14:50.449Z,976.965
2018-08-13T17:16:50.144Z,976.958
2018-08-13T17:18:50.360Z,976.942
2018-08-13T17:20:50.469Z,976.947
2018-08-13T17:22:49.662Z,976.950
2018-08-13T17:24:49.901Z,976.921
2018-08-13T17:26:50.344Z,976.930
2018-08-13T17:28:50.537Z,976.934
2018-08-13T17:30:49.699Z,976.935
2018-08-13T17:32:49.901Z,976.935
2018-08-13T17:34:50.486Z,976.942
2018-08-13T17:36:49.809Z,976.928
2018-08-13T17:38:49.880Z,976.926
2018-08-13T17:40:50.054Z,976.923
2018-08-13T17:42:50.754Z,976.923
2018-08-13T17:44:50.212Z,976.937
2018-08-13T17:46:50.612Z,976.936
2018-08-13T17:48:49.796Z,976.975
2018-08-13T17:50:49.976Z,977.049
2018-08-13T17:52:50.093Z,977.056
2018-08-13T17:54:50.095Z,977.099
2018-08-13T17:56:50.499Z,977.120
2018-08-13T17:58:50.565Z,977.142
2018-08-13T18:00:49.889Z,977.165
2018-08-13T18:02:49.963Z,977.175
2018-08-13T18:04:50.233Z,977.180
2018-08-13T18:06:49.637Z,977.196
2018-08-13T18:08:49.801Z,977.219
2018-08-13T18:10:49.844Z,977.217
2018-08-13T18:12:49.889Z,977.206
2018-08-13T18:14:49.941Z,977.234
2018-08-13T18:16:50.378Z,977.234
2018-08-13T18:18:50.573Z,977.224
2018-08-13T18:20:50.536Z,977.218
2018-08-13T18:22:49.650Z,977.205
2018-08-13T18:24:49.773Z,977.201
2018-08-13T18:26:50.215Z,977.195
2018-08-13T18:28:50.326Z,977.195
2018-08-13T18:30:50.343Z,977.254
2018-08-13T18:32:50.377Z,977.300
2018-08-13T18:34:50.010Z,977.318
2018-08-13T18:36:50.388Z,977.337
2018-08-13T18:38:50.571Z,977.353
2018-08-13T18:40:50.582Z,977.391
2018-08-13T18:42:49.692Z,977.422
2018-08-13T18:44:49.811Z,977.454
2018-08-13T18:46:50.418Z,977.479
2018-08-13T18:48:49.828Z,977.488
2018-08-13T18:50:49.799Z,977.488
2018-08-13T18:52:49.776Z,977.498
2018-08-13T18:54:49.941Z,977.514
2018-08-13T18:56:50.404Z,977.531
2018-08-13T18:58:50.403Z,977.544
2018-08-13T19:00:50.404Z,977.562
2018-08-13T19:02:50.450Z,977.573
2018-08-13T19:04:50.438Z,977.590
2018-08-13T19:06:50.140Z,977.611
2018-08-13T19:08:50.281Z,977.620
2018-08-13T19:10:50.312Z,977.633
2018-08-13T19:12:50.476Z,977.666
2018-08-13T19:14:50.546Z,977.666
2018-08-13T19:16:49.924Z,977.756
2018-08-13T19:18:49.892Z,978.040
2018-08-13T19:20:49.890Z,978.141
2018-08-13T19:22:49.965Z,978.277
2018-08-13T19:24:50.117Z,978.326
2018-08-13T19:26:50.486Z,978.357
2018-08-13T19:28:50.517Z,978.353
2018-08-13T19:30:50.640Z,978.322
2018-08-13T19:32:49.779Z,978.309
2018-08-13T19:34:50.262Z,978.313
2018-08-13T19:36:50.526Z,978.308
2018-08-13T19:38:50.467Z,978.315
2018-08-13T19:40:50.615Z,978.339
2018-08-13T19:42:49.661Z,978.370
2018-08-13T19:44:49.777Z,978.352
2018-08-13T19:46:50.078Z,978.339
2018-08-13T19:48:50.178Z,978.282
2018-08-13T19:50:50.301Z,978.258
2018-08-13T19:52:50.447Z,978.240
2018-08-13T19:54:50.415Z,978.227
2018-08-13T19:56:49.664Z,978.241
2018-08-13T19:58:49.808Z,978.270
2018-08-13T20:00:49.924Z,978.303
2018-08-13T20:02:49.986Z,978.357
2018-08-13T20:04:50.333Z,978.385
2018-08-13T20:06:49.837Z,978.402
2018-08-13T20:08:50.053Z,978.394
2018-08-13T20:10:50.123Z,978.363
2018-08-13T20:12:50.166Z,978.339
2018-08-13T20:14:50.253Z,978.316
2018-08-13T20:16:49.626Z,978.357
2018-08-13T20:18:49.774Z,978.384
2018-08-13T20:20:49.718Z,978.426
2018-08-13T20:22:49.698Z,978.426
2018-08-13T20:24:49.998Z,978.425
2018-08-13T20:26:50.457Z,978.425
2018-08-13T20:28:50.451Z,978.409
2018-08-13T20:30:50.562Z,978.409
2018-08-13T20:32:49.700Z,978.406
2018-08-13T20:34:50.311Z,978.425
2018-08-13T20:36:49.786Z,978.423
2018-08-13T20:38:50.175Z,978.402
2018-08-13T20:40:50.504Z,978.413
2018-08-13T20:42:49.615Z,978.483
2018-08-13T20:44:49.780Z,978.483
2018-08-13T20:46:50.046Z,978.549
2018-08-13T20:48:50.144Z,978.551
2018-08-13T20:50:50.316Z,978.551
2018-08-13T20:52:50.453Z,978.565
2018-08-13T20:54:50.485Z,978.568
2018-08-13T20:56:49.723Z,978.567
2018-08-13T20:58:49.809Z,978.590
2018-08-13T21:00:50.084Z,978.591
2018-08-13T21:02:50.122Z,978.594
2018-08-13T21:04:50.570Z,978.582
2018-08-13T21:06:50.007Z,978.576
2018-08-13T21:08:50.178Z,978.656
2018-08-13T21:10:50.252Z,978.678
2018-08-13T21:12:50.274Z,978.690
2018-08-13T21:14:50.342Z,978.709
2018-08-13T21:16:49.624Z,978.764
2018-08-13T21:18:49.741Z,978.764
2018-08-13T21:20:49.715Z,978.778
2018-08-13T21:22:49.793Z,978.790
2018-08-13T21:24:50.060Z,978.789
2018-08-13T21:26:50.344Z,978.812
2018-08-13T21:28:50.391Z,978.836
2018-08-13T21:30:50.450Z,978.850
2018-08-13T21:32:50.520Z,978.850
2018-08-13T21:34:50.107Z,978.888
2018-08-13T21:36:49.634Z,978.869
2018-08-13T21:38:49.739Z,978.855
2018-08-13T21:40:49.768Z,978.824
2018-08-13T21:42:50.102Z,978.826
2018-08-13T21:44:49.614Z,978.821
2018-08-13T21:46:49.935Z,978.829
2018-08-13T21:48:49.908Z,978.829
2018-08-13T21:50:49.982Z,978.858
2018-08-13T21:52:50.219Z,978.845
2018-08-13T21:54:50.320Z,978.828
2018-08-13T21:56:50.596Z,978.821
2018-08-13T21:58:49.662Z,978.851
2018-08-13T22:00:49.817Z,978.865
2018-08-13T22:02:49.957Z,978.892
2018-08-13T22:04:50.426Z,978.907
2018-08-13T22:06:49.709Z,978.938
2018-08-13T22:08:49.778Z,978.995
2018-08-13T22:10:49.886Z,979.032
2018-08-13T22:12:50.064Z,979.073
2018-08-13T22:14:50.155Z,979.112
2018-08-13T22:16:50.518Z,979.159
2018-08-13T22:18:49.651Z,979.177
2018-08-13T22:20:49.873Z,979.185
2018-08-13T22:22:49.972Z,979.182
2018-08-13T22:24:50.091Z,979.174
2018-08-13T22:26:50.363Z,979.184
2018-08-13T22:28:50.511Z,979.216
2018-08-13T22:30:49.695Z,979.217
2018-08-13T22:32:49.775Z,979.223
2018-08-13T22:34:50.224Z,979.240
2018-08-13T22:36:50.654Z,979.237
2018-08-13T22:38:49.926Z,979.239
2018-08-13T22:40:50.033Z,979.249
2018-08-13T22:42:50.256Z,979.261
2018-08-13T22:44:50.291Z,979.277
2018-08-13T22:46:50.644Z,979.308
2018-08-13T22:48:49.889Z,979.318
2018-08-13T22:50:49.936Z,979.329
2018-08-13T22:52:50.040Z,979.350
2018-08-13T22:54:50.209Z,979.343
2018-08-13T22:56:50.556Z,979.339
2018-08-13T22:58:49.792Z,979.330
2018-08-13T23:00:50.095Z,979.323
2018-08-13T23:02:50.503Z,979.302
2018-08-13T23:04:50.042Z,979.302
2018-08-13T23:06:50.410Z,979.281
2018-08-13T23:08:50.574Z,979.276
2018-08-13T23:10:50.526Z,979.272
2018-08-13T23:12:50.632Z,979.284
2018-08-13T23:14:50.043Z,979.288
2018-08-13T23:16:49.711Z,979.294
2018-08-13T23:18:49.954Z,979.294
2018-08-13T23:20:49.982Z,979.316
2018-08-13T23:22:50.052Z,979.332
2018-08-13T23:24:50.255Z,979.334
2018-08-13T23:26:49.693Z,979.340
2018-08-13T23:28:49.670Z,979.343
2018-08-13T23:30:49.769Z,979.356
2018-08-13T23:32:49.876Z,979.358
2018-08-13T23:34:50.282Z,979.340
2018-08-13T23:36:49.663Z,979.340
2018-08-13T23:38:49.659Z,979.361
2018-08-13T23:40:49.707Z,979.364
2018-08-13T23:42:49.951Z,979.368
2018-08-13T23:44:50.014Z,979.373
2018-08-13T23:46:50.411Z,979.370
2018-08-13T23:48:50.568Z,979.343
2018-08-13T23:50:49.691Z,979.336
2018-08-13T23:52:49.902Z,979.342
2018-08-13T23:54:50.016Z,979.341
2018-08-13T23:56:50.308Z,979.334
2018-08-13T23:58:50.399Z,979.355
